createdAt,value
2022-12-16T00:00:33.742Z,9.02
2022-12-16T00:03:02.306Z,9.63
2022-12-16T00:05:30.085Z,10.43
2022-12-16T00:07:57.840Z,9.80
2022-12-16T00:10:25.620Z,10.07
2022-12-16T00:12:53.640Z,9.70
2022-12-16T00:15:22.942Z,9.35
2022-12-16T00:17:50.755Z,9.03
2022-12-16T00:20:19.551Z,9.25
2022-12-16T00:22:47.305Z,9.57
2022-12-16T00:25:15.080Z,8.70
2022-12-16T00:27:42.934Z,8.77
2022-12-16T00:30:10.688Z,9.38
2022-12-16T00:32:38.413Z,9.38
2022-12-16T00:35:06.392Z,10.02
2022-12-16T00:37:34.200Z,9.55
2022-12-16T00:40:01.959Z,9.30
2022-12-16T00:42:30.566Z,8.98
2022-12-16T00:44:58.436Z,9.50
2022-12-16T00:47:26.430Z,8.88
2022-12-16T00:49:54.212Z,9.25
2022-12-16T00:52:22.762Z,9.00
2022-12-16T00:54:50.578Z,9.70
2022-12-16T00:57:19.668Z,9.82
2022-12-16T00:59:47.428Z,9.65
2022-12-16T01:02:15.374Z,8.40
2022-12-16T01:04:43.226Z,11.05
2022-12-16T01:07:10.958Z,9.98
2022-12-16T01:09:38.668Z,10.07
2022-12-16T01:12:06.500Z,9.82
2022-12-16T01:14:34.283Z,9.63
2022-12-16T01:17:02.276Z,9.55
2022-12-16T01:19:30.092Z,9.55
2022-12-16T01:21:57.845Z,8.88
2022-12-16T01:24:25.710Z,9.20
2022-12-16T01:26:53.462Z,10.07
2022-12-16T01:29:21.394Z,9.55
2022-12-16T01:31:49.250Z,9.73
2022-12-16T01:34:17.374Z,10.07
2022-12-16T01:36:45.204Z,9.38
2022-12-16T01:39:13.153Z,9.75
2022-12-16T01:41:40.870Z,9.30
2022-12-16T01:44:08.599Z,9.85
2022-12-16T01:46:38.557Z,9.60
2022-12-16T01:49:06.342Z,8.68
2022-12-16T01:51:34.148Z,9.40
2022-12-16T01:54:01.946Z,9.32
2022-12-16T01:56:29.822Z,9.60
2022-12-16T02:05:23.198Z,9.20
2022-12-16T02:07:51.283Z,9.02
2022-12-16T02:10:19.298Z,10.45
2022-12-16T02:12:47.215Z,10.23
2022-12-16T02:15:15.124Z,10.50
2022-12-16T02:17:42.986Z,10.18
2022-12-16T02:20:10.798Z,10.45
2022-12-16T02:22:38.829Z,9.80
2022-12-16T02:25:06.817Z,10.75
2022-12-16T02:27:34.631Z,9.90
2022-12-16T02:30:02.499Z,9.90
2022-12-16T02:32:30.270Z,9.82
2022-12-16T02:34:58.124Z,10.68
2022-12-16T02:37:26.001Z,10.02
2022-12-16T02:39:53.776Z,9.43
2022-12-16T02:42:21.791Z,10.88
2022-12-16T02:44:49.734Z,10.40
2022-12-16T02:47:18.545Z,9.45
2022-12-16T02:49:46.653Z,11.00
2022-12-16T02:52:14.508Z,9.82
2022-12-16T02:54:42.449Z,10.93
2022-12-16T02:57:10.419Z,9.95
2022-12-16T02:59:38.358Z,10.70
2022-12-16T03:02:06.295Z,9.70
2022-12-16T03:04:34.507Z,10.13
2022-12-16T03:07:02.405Z,10.20
2022-12-16T03:09:30.294Z,10.13
2022-12-16T03:11:58.088Z,10.45
2022-12-16T03:14:26.007Z,11.45
2022-12-16T03:16:53.947Z,10.43
2022-12-16T03:19:21.899Z,10.25
2022-12-16T03:21:49.868Z,9.65
2022-12-16T03:24:17.729Z,11.05
2022-12-16T03:26:45.624Z,10.02
2022-12-16T03:29:13.457Z,10.20
2022-12-16T03:31:41.452Z,11.10
2022-12-16T03:34:10.783Z,10.93
2022-12-16T03:36:38.563Z,10.38
2022-12-16T03:39:06.469Z,10.55
2022-12-16T03:41:34.364Z,10.15
2022-12-16T03:44:02.183Z,10.90
2022-12-16T03:46:30.599Z,10.32
2022-12-16T03:48:58.698Z,10.60
2022-12-16T03:51:26.524Z,10.88
2022-12-16T03:53:54.354Z,10.70
2022-12-16T03:56:22.316Z,10.98
2022-12-16T03:58:50.082Z,10.63
2022-12-16T04:01:18.214Z,10.75
2022-12-16T04:03:46.195Z,10.15
2022-12-16T04:06:18.655Z,10.90
2022-12-16T04:08:46.827Z,9.85
2022-12-16T04:11:32.323Z,9.88
2022-12-16T04:14:17.465Z,10.45
2022-12-16T04:17:02.804Z,10.50
2022-12-16T04:19:47.952Z,10.40
2022-12-16T04:22:33.133Z,10.13
2022-12-16T04:25:00.965Z,10.75
2022-12-16T04:27:29.458Z,10.38
2022-12-16T04:30:14.869Z,10.38
2022-12-16T04:33:00.201Z,10.32
2022-12-16T04:35:45.438Z,10.20
2022-12-16T04:38:30.661Z,10.23
2022-12-16T04:41:16.366Z,10.73
2022-12-16T04:44:01.725Z,10.63
2022-12-16T04:46:47.213Z,10.05
2022-12-16T04:49:32.655Z,10.27
2022-12-16T04:52:17.905Z,10.07
2022-12-16T04:55:02.966Z,9.43
2022-12-16T04:57:48.258Z,9.60
2022-12-16T05:00:33.672Z,9.88
2022-12-16T05:03:27.551Z,10.38
2022-12-16T05:06:12.788Z,9.85
2022-12-16T05:08:58.285Z,9.93
2022-12-16T05:11:43.506Z,9.88
2022-12-16T05:14:28.596Z,9.02
2022-12-16T05:19:52.949Z,9.80
2022-12-16T05:22:43.687Z,9.32
2022-12-16T05:25:28.740Z,9.20
2022-12-16T05:28:14.175Z,9.32
2022-12-16T05:30:59.377Z,9.38
2022-12-16T05:33:44.402Z,9.23
2022-12-16T05:36:29.687Z,9.63
2022-12-16T05:39:14.738Z,10.40
2022-12-16T05:41:59.937Z,9.70
2022-12-16T05:44:45.190Z,9.48
2022-12-16T05:47:30.384Z,10.25
2022-12-16T05:50:16.081Z,9.15
2022-12-16T05:53:01.393Z,9.52
2022-12-16T05:55:46.628Z,8.98
2022-12-16T05:58:31.639Z,9.80
2022-12-16T06:01:16.934Z,9.95
2022-12-16T06:04:02.061Z,10.65
2022-12-16T06:06:47.633Z,9.48
2022-12-16T06:09:32.772Z,10.57
2022-12-16T06:12:29.426Z,9.60
2022-12-16T06:15:14.599Z,9.55
2022-12-16T06:17:59.819Z,9.27
2022-12-16T06:20:45.007Z,9.18
2022-12-16T06:23:30.092Z,8.45
2022-12-16T06:26:15.304Z,9.13
2022-12-16T06:29:00.334Z,9.05
2022-12-16T06:31:45.588Z,9.73
2022-12-16T06:34:31.021Z,9.23
2022-12-16T06:37:16.057Z,9.18
2022-12-16T06:40:01.409Z,10.10
2022-12-16T06:42:46.524Z,9.23
2022-12-16T06:45:34.911Z,9.38
2022-12-16T06:48:20.749Z,8.85
2022-12-16T06:51:05.717Z,8.23
2022-12-16T06:53:47.245Z,8.52
2022-12-16T06:56:32.286Z,8.90
2022-12-16T06:59:17.539Z,10.15
2022-12-16T07:02:02.706Z,8.98
2022-12-16T07:04:48.857Z,9.07
2022-12-16T07:07:34.330Z,8.68
2022-12-16T07:10:30.869Z,8.52
2022-12-16T07:13:15.933Z,9.02
2022-12-16T07:16:05.392Z,8.68
2022-12-16T07:18:50.724Z,8.60
2022-12-16T07:21:35.940Z,9.07
2022-12-16T07:24:21.202Z,9.63
2022-12-16T07:27:06.388Z,9.20
2022-12-16T07:29:51.443Z,9.38
2022-12-16T07:32:38.143Z,8.48
2022-12-16T07:35:23.455Z,8.98
2022-12-16T07:38:08.937Z,9.15
2022-12-16T07:40:53.988Z,8.88
2022-12-16T07:43:39.214Z,8.60
2022-12-16T07:46:24.485Z,8.90
2022-12-16T07:49:09.568Z,8.63
2022-12-16T07:51:54.764Z,8.70
2022-12-16T07:54:40.961Z,8.30
2022-12-16T07:57:26.117Z,8.57
2022-12-16T08:00:11.208Z,9.38
2022-12-16T08:02:56.423Z,8.40
2022-12-16T08:05:42.002Z,8.52
2022-12-16T08:08:27.155Z,8.18
2022-12-16T08:11:12.328Z,8.60
2022-12-16T08:13:57.404Z,8.43
2022-12-16T08:16:42.654Z,8.23
2022-12-16T08:19:28.120Z,8.80
2022-12-16T08:22:13.305Z,9.02
2022-12-16T08:25:03.961Z,8.85
2022-12-16T08:27:49.122Z,9.80
2022-12-16T08:30:34.311Z,9.65
2022-12-16T08:33:20.055Z,9.10
2022-12-16T08:36:05.175Z,8.90
2022-12-16T08:38:50.322Z,9.15
2022-12-16T08:41:36.522Z,8.85
2022-12-16T08:44:21.788Z,8.90
2022-12-16T08:47:07.103Z,8.40
2022-12-16T08:49:54.788Z,8.15
2022-12-16T08:52:42.793Z,7.68
2022-12-16T08:55:29.876Z,8.15
2022-12-16T08:58:15.408Z,7.82
2022-12-16T09:01:06.271Z,7.75
2022-12-16T09:03:52.486Z,7.47
2022-12-16T09:06:40.616Z,7.40
2022-12-16T09:09:28.961Z,7.78
2022-12-16T09:12:14.016Z,7.82
2022-12-16T09:14:59.242Z,7.25
2022-12-16T09:17:44.425Z,8.13
2022-12-16T09:20:29.614Z,7.40
2022-12-16T09:23:14.956Z,7.57
2022-12-16T09:26:00.099Z,8.00
2022-12-16T09:28:45.710Z,8.07
2022-12-16T09:31:30.911Z,7.72
2022-12-16T09:34:16.412Z,7.10
2022-12-16T09:37:01.413Z,7.57
2022-12-16T09:39:46.719Z,7.50
2022-12-16T09:42:32.124Z,7.75
2022-12-16T09:45:17.339Z,7.35
2022-12-16T09:48:02.535Z,7.28
2022-12-16T09:50:47.748Z,7.38
2022-12-16T09:53:33.338Z,7.85
2022-12-16T09:56:30.771Z,7.70
2022-12-16T09:59:15.881Z,7.93
2022-12-16T10:02:01.076Z,8.85
2022-12-16T10:04:46.242Z,8.85
2022-12-16T10:07:31.404Z,7.70
2022-12-16T10:10:16.487Z,8.30
2022-12-16T10:13:01.753Z,8.43
2022-12-16T10:15:46.819Z,8.75
2022-12-16T10:18:32.455Z,8.30
2022-12-16T10:21:17.705Z,9.13
2022-12-16T10:24:03.041Z,8.73
2022-12-16T10:26:48.607Z,8.48
2022-12-16T10:29:33.665Z,8.63
2022-12-16T10:32:18.805Z,9.20
2022-12-16T10:35:03.815Z,9.20
2022-12-16T10:37:49.232Z,8.38
2022-12-16T10:40:34.362Z,9.05
2022-12-16T10:43:22.409Z,8.80
2022-12-16T10:46:07.950Z,8.88
2022-12-16T10:48:56.863Z,8.45
2022-12-16T10:51:42.449Z,9.13
2022-12-16T10:54:24.013Z,9.25
2022-12-16T10:57:09.125Z,9.68
2022-12-16T10:59:54.209Z,9.40
2022-12-16T11:02:39.878Z,9.73
2022-12-16T11:05:25.317Z,9.18
2022-12-16T11:08:10.454Z,9.10
2022-12-16T11:10:56.157Z,9.98
2022-12-16T11:13:41.871Z,10.23
2022-12-16T11:16:27.040Z,9.30
2022-12-16T11:19:12.672Z,9.05
2022-12-16T11:21:58.088Z,9.32
2022-12-16T11:24:43.435Z,9.70
2022-12-16T11:27:29.068Z,10.35
2022-12-16T11:30:14.301Z,9.73
2022-12-16T11:32:59.605Z,9.82
2022-12-16T11:35:45.070Z,11.00
2022-12-16T11:38:30.296Z,10.30
2022-12-16T11:41:15.362Z,10.18
2022-12-16T11:44:00.536Z,10.15
2022-12-16T11:46:45.982Z,10.15
2022-12-16T11:49:31.355Z,10.93
2022-12-16T11:55:35.742Z,11.15
2022-12-16T11:58:27.226Z,10.43
2022-12-16T12:01:23.880Z,10.15
2022-12-16T12:04:09.214Z,10.55
2022-12-16T12:06:54.418Z,10.55
2022-12-16T12:09:39.967Z,11.15
2022-12-16T12:12:25.323Z,11.25
2022-12-16T12:15:10.579Z,10.63
2022-12-16T12:17:55.729Z,11.48
2022-12-16T12:20:41.154Z,10.77
2022-12-16T12:23:26.318Z,10.80
2022-12-16T12:26:11.512Z,10.43
2022-12-16T12:28:56.813Z,10.35
2022-12-16T12:31:42.060Z,10.60
2022-12-16T12:34:27.698Z,10.80
2022-12-16T12:37:12.939Z,10.30
2022-12-16T12:39:58.179Z,10.50
2022-12-16T12:42:48.893Z,10.70
2022-12-16T12:45:46.002Z,10.85
2022-12-16T12:48:31.154Z,10.27
2022-12-16T12:51:16.254Z,11.23
2022-12-16T12:54:01.649Z,10.15
2022-12-16T12:56:46.789Z,11.38
2022-12-16T12:59:31.958Z,12.02
2022-12-16T13:02:17.303Z,12.43
2022-12-16T13:05:02.856Z,10.85
2022-12-16T13:07:48.042Z,11.73
2022-12-16T13:10:33.217Z,11.45
2022-12-16T13:13:18.670Z,11.00
2022-12-16T13:16:03.958Z,11.75
2022-12-16T13:18:49.280Z,11.98
2022-12-16T13:21:34.344Z,13.60
2022-12-16T13:24:27.918Z,11.52
2022-12-16T13:27:13.095Z,11.77
2022-12-16T13:29:58.393Z,12.55
2022-12-16T13:32:43.375Z,12.10
2022-12-16T13:35:33.823Z,12.50
2022-12-16T13:38:19.182Z,12.70
2022-12-16T13:41:04.466Z,12.15
2022-12-16T13:43:49.791Z,13.10
2022-12-16T13:46:35.127Z,11.60
2022-12-16T13:49:23.393Z,11.52
2022-12-16T13:52:08.936Z,12.95
2022-12-16T13:54:54.482Z,12.98
2022-12-16T13:57:39.657Z,12.70
2022-12-16T14:00:24.768Z,11.70
2022-12-16T14:03:10.274Z,12.63
2022-12-16T14:05:55.659Z,12.32
2022-12-16T14:08:41.110Z,11.52
2022-12-16T14:11:26.182Z,11.85
2022-12-16T14:14:11.218Z,11.80
2022-12-16T14:16:56.615Z,12.05
2022-12-16T14:19:38.312Z,10.82
2022-12-16T14:22:23.507Z,11.80
2022-12-16T14:25:08.766Z,11.90
2022-12-16T14:27:54.083Z,13.98
2022-12-16T14:30:39.701Z,11.15
2022-12-16T14:33:24.925Z,12.27
2022-12-16T14:36:09.983Z,11.88
2022-12-16T14:38:55.235Z,12.30
2022-12-16T14:41:40.467Z,11.88
2022-12-16T14:44:25.891Z,12.52
2022-12-16T14:47:11.251Z,10.25
2022-12-16T14:49:56.391Z,8.90
2022-12-16T14:52:47.086Z,9.30
2022-12-16T14:55:32.410Z,8.65
2022-12-16T14:58:26.006Z,8.20
2022-12-16T15:01:15.786Z,7.97
2022-12-16T15:04:01.566Z,7.43
2022-12-16T15:06:47.217Z,6.97
2022-12-16T15:09:32.631Z,6.47
2022-12-16T15:12:17.742Z,6.57
2022-12-16T15:15:03.145Z,6.10
2022-12-16T15:17:48.165Z,5.80
2022-12-16T15:20:33.965Z,6.20
2022-12-16T15:23:19.051Z,5.63
2022-12-16T15:26:04.409Z,6.13
2022-12-16T15:28:49.689Z,6.43
2022-12-16T15:31:34.821Z,5.30
2022-12-16T15:34:35.046Z,6.13
2022-12-16T15:37:20.168Z,6.00
2022-12-16T15:40:04.865Z,6.00
2022-12-16T15:42:49.894Z,6.28
2022-12-16T15:45:35.036Z,6.53
2022-12-16T15:48:20.212Z,6.72
2022-12-16T15:51:05.622Z,7.55
2022-12-16T15:53:50.933Z,7.22
2022-12-16T15:56:36.499Z,7.70
2022-12-16T15:59:22.018Z,8.68
2022-12-16T16:02:07.152Z,8.07
2022-12-16T16:04:52.523Z,8.25
2022-12-16T16:07:46.192Z,8.48
2022-12-16T16:10:31.550Z,9.20
2022-12-16T16:13:13.093Z,8.63
2022-12-16T16:15:58.397Z,8.85
2022-12-16T16:18:43.805Z,9.50
2022-12-16T16:21:29.096Z,9.02
2022-12-16T16:24:10.659Z,8.88
2022-12-16T16:26:55.945Z,9.30
2022-12-16T16:29:41.249Z,8.73
2022-12-16T16:32:26.510Z,8.48
2022-12-16T16:35:11.791Z,8.27
2022-12-16T16:37:56.904Z,7.45
2022-12-16T16:40:42.184Z,8.25
2022-12-16T16:43:27.266Z,7.90
2022-12-16T16:46:12.621Z,7.93
2022-12-16T16:48:58.247Z,7.28
2022-12-16T16:51:43.826Z,7.45
2022-12-16T16:54:28.986Z,8.10
2022-12-16T16:57:19.581Z,7.75
2022-12-16T17:00:04.909Z,8.30
2022-12-16T17:02:50.284Z,7.93
2022-12-16T17:05:35.741Z,8.48
2022-12-16T17:08:35.651Z,8.70
2022-12-16T17:11:20.824Z,9.70
2022-12-16T17:14:05.971Z,8.80
2022-12-16T17:16:51.027Z,8.20
2022-12-16T17:19:37.743Z,8.40
2022-12-16T17:22:22.891Z,8.50
2022-12-16T17:25:08.265Z,8.23
2022-12-16T17:27:53.429Z,8.10
2022-12-16T17:30:42.029Z,9.55
2022-12-16T17:33:32.503Z,9.15
2022-12-16T17:36:18.270Z,7.78
2022-12-16T17:39:03.534Z,8.23
2022-12-16T17:41:48.912Z,8.63
2022-12-16T17:44:34.288Z,7.85
2022-12-16T17:47:19.731Z,7.88
2022-12-16T17:50:05.593Z,8.25
2022-12-16T17:52:51.049Z,13.63
2022-12-16T17:55:36.167Z,9.68
2022-12-16T17:58:21.755Z,8.88
2022-12-16T18:01:07.224Z,8.90
2022-12-16T18:03:52.596Z,9.77
2022-12-16T18:06:38.750Z,8.57
2022-12-16T18:09:38.723Z,9.43
2022-12-16T18:12:24.102Z,8.90
2022-12-16T18:15:09.150Z,8.60
2022-12-16T18:17:54.602Z,8.60
2022-12-16T18:20:40.140Z,8.10
2022-12-16T18:23:25.684Z,9.23
2022-12-16T18:26:10.887Z,8.18
2022-12-16T18:28:56.323Z,7.93
2022-12-16T18:31:41.987Z,7.35
2022-12-16T18:34:27.358Z,7.43
2022-12-16T18:37:12.836Z,7.13
2022-12-16T18:39:58.307Z,7.40
2022-12-16T18:42:43.513Z,8.00
2022-12-16T18:45:29.039Z,7.45
2022-12-16T18:48:14.298Z,8.00
2022-12-16T18:50:59.409Z,8.25
2022-12-16T18:53:56.410Z,8.57
2022-12-16T18:56:41.706Z,8.60
2022-12-16T18:59:23.261Z,8.95
2022-12-16T19:02:08.744Z,8.13
2022-12-16T19:04:54.190Z,8.25
2022-12-16T19:07:39.620Z,8.45
2022-12-16T19:10:24.791Z,8.57
2022-12-16T19:13:10.300Z,9.07
2022-12-16T19:15:56.012Z,8.52
2022-12-16T19:18:41.506Z,8.50
2022-12-16T19:21:38.379Z,8.40
2022-12-16T19:24:23.635Z,7.63
2022-12-16T19:27:14.994Z,8.10
2022-12-16T19:30:01.152Z,7.90
2022-12-16T19:32:46.626Z,8.00
2022-12-16T19:35:32.111Z,7.82
2022-12-16T19:38:17.704Z,7.97
2022-12-16T19:41:03.084Z,8.75
2022-12-16T19:43:48.859Z,8.32
2022-12-16T19:46:34.246Z,8.80
2022-12-16T19:49:19.761Z,8.93
2022-12-16T19:52:05.178Z,9.18
2022-12-16T19:54:50.399Z,8.77
2022-12-16T19:57:35.999Z,8.68
2022-12-16T20:00:21.148Z,9.15
2022-12-16T20:03:06.938Z,9.18
2022-12-16T20:05:52.125Z,8.90
2022-12-16T20:08:41.529Z,8.80
2022-12-16T20:11:27.119Z,9.10
2022-12-16T20:14:12.262Z,9.20
2022-12-16T20:16:57.749Z,9.40
2022-12-16T20:19:43.215Z,9.88
2022-12-16T20:22:24.849Z,9.35
2022-12-16T20:25:09.927Z,9.70
2022-12-16T20:27:55.080Z,9.60
2022-12-16T20:30:42.102Z,9.63
2022-12-16T20:33:27.487Z,10.40
2022-12-16T20:36:12.750Z,9.90
2022-12-16T20:38:58.081Z,10.40
2022-12-16T20:41:43.459Z,10.38
2022-12-16T20:44:28.549Z,10.50
2022-12-16T20:47:13.893Z,10.52
2022-12-16T20:49:58.989Z,11.07
2022-12-16T20:52:44.075Z,11.32
2022-12-16T20:55:29.533Z,11.38
2022-12-16T20:58:14.759Z,11.93
2022-12-16T21:01:00.284Z,11.20
2022-12-16T21:03:45.808Z,11.10
2022-12-16T21:06:31.318Z,11.70
2022-12-16T21:09:16.665Z,10.90
2022-12-16T21:12:01.805Z,11.70
2022-12-16T21:14:47.023Z,11.30
2022-12-16T21:17:32.409Z,11.90
2022-12-16T21:20:17.560Z,12.52
2022-12-16T21:23:02.947Z,11.10
2022-12-16T21:25:48.307Z,12.18
2022-12-16T21:28:29.865Z,11.43
2022-12-16T21:31:15.170Z,11.68
2022-12-16T21:34:00.388Z,12.25
2022-12-16T21:36:45.868Z,11.38
2022-12-16T21:39:30.984Z,11.43
2022-12-16T21:42:16.420Z,11.63
2022-12-16T21:45:01.938Z,11.45
2022-12-16T21:47:47.164Z,11.10
2022-12-16T21:50:32.425Z,11.82
2022-12-16T21:53:17.835Z,11.40
2022-12-16T21:56:03.332Z,11.60
2022-12-16T21:58:48.553Z,12.00
2022-12-16T22:01:34.293Z,11.35
2022-12-16T22:04:19.595Z,12.15
2022-12-16T22:07:05.027Z,12.02
2022-12-16T22:09:50.379Z,12.02
2022-12-16T22:12:35.468Z,11.43
2022-12-16T22:15:20.974Z,12.15
2022-12-16T22:18:06.253Z,11.32
2022-12-16T22:20:51.830Z,12.10
2022-12-16T22:23:37.326Z,11.18
2022-12-16T22:26:22.846Z,11.90
2022-12-16T22:29:08.381Z,11.25
2022-12-16T22:31:55.085Z,12.07
2022-12-16T22:34:41.692Z,11.27
2022-12-16T22:37:26.933Z,11.48
2022-12-16T22:40:12.164Z,11.32
2022-12-16T22:42:57.868Z,11.80
2022-12-16T22:45:43.195Z,11.73
2022-12-16T22:48:28.289Z,12.07
2022-12-16T22:51:13.325Z,11.95
2022-12-16T22:53:58.934Z,11.55
2022-12-16T22:56:44.388Z,12.40
2022-12-16T22:59:29.606Z,11.85
2022-12-16T23:02:15.294Z,11.80
2022-12-16T23:05:12.240Z,12.45
2022-12-16T23:07:57.278Z,12.32
2022-12-16T23:10:42.572Z,12.32
2022-12-16T23:13:27.963Z,12.60
2022-12-16T23:16:15.458Z,12.30
2022-12-16T23:19:15.322Z,12.23
2022-12-16T23:22:00.491Z,10.88
2022-12-16T23:24:53.978Z,12.30
2022-12-16T23:27:39.126Z,11.27
2022-12-16T23:30:20.695Z,11.77
2022-12-16T23:33:05.976Z,12.57
2022-12-16T23:35:51.159Z,12.50
2022-12-16T23:38:37.482Z,11.52
2022-12-16T23:41:22.951Z,11.48
2022-12-16T23:44:08.134Z,12.20
2022-12-16T23:46:53.546Z,11.93
2022-12-16T23:49:38.915Z,11.90
2022-12-16T23:52:23.960Z,11.82
2022-12-16T23:55:09.210Z,11.73
2022-12-16T23:57:56.089Z,12.27
